Union, WA (98592)

6:24 AM PST on February 07, 2016 (GMT -0800)
Union Wa | | Change Station
CLOSE
Current Station
Personal Weather Station
Location: Union, WA
Elevation: 0 ft
Nearby Weather Stations

Elev 0 ft 47.35 °N, 123.07 °W | Updated 3 seconds ago

Mostly Cloudy
Mostly Cloudy
37.0 °F
Feels Like 37 °F
N
0.0
Wind Variable Wind from WNW
Gusts 0.0 mph

Today
High -- | Low -- °F
--% Chance of Precip.
Yesterday
High -- | Low -- °F
Precip. -- in
Pressure 30.50 in
Visibility 3.0 miles
Clouds Mostly Cloudy 100 ft
Overcast 8500 ft
Windchill 37 °F
Dew Point 37 °F
Humidity 99%
Rainfall 0.00 in
Snow Depth Not available.
7:30 AM 5:23 PM
Waning Crescent, 1% visible
SPECI KSHN 071421Z AUTO 00000KT 3SM BR BKN001 OVC085 02/02 A3050 RMK AO2 T00170017
Pressure 30.50 in
Visibility 3.0 miles
Clouds Mostly Cloudy 100 ft
Overcast 8500 ft
Windchill 37 °F
Dew Point 37 °F
Humidity 99%
Rainfall 0.00 in
Snow Depth Not available.
7:30 AM 5:23 PM
Waning Crescent, 1% visible
SPECI KSHN 071421Z AUTO 00000KT 3SM BR BKN001 OVC085 02/02 A3050 RMK AO2 T00170017

10-Day Weather Forecast

Almanac

Astronomy

Feb. 07, 2016 Rise Set
Actual Time
Civil Twilight
Nautical Twilight
Astronomical Twilight
Moon
Length of Visible Light
Length of Day
Tomorrow will be .
, % of the Moon is Illuminated

Today's Extremes

State Highs State Lows

Community

WunderPhotos

Upload Photos

1,891,204 photos uploaded!

WunderBlog® & News

Nearby

Air Quality

  Air Quality AQ Index Pollutant
Not available.

Snow Depth

Station Depth Elevation

Earthquake Activity

City Distance Mag. Time & Date
Minimum magnitude displayed is 2.5.

Coastal Water Temperatures

Place Temperature

Stations

Nearby Weather Stations

Station Location Temp. Windchill Dew Point Humidity Wind Precip. Elev Updated Type
                   

Watches & Warnings

There are currently no watches in effect.